Time;durP1;ratioP1;P1;durP2;ratioP2;P2;SDS_P1;SDS_P2;PMS_P1;PMS_P2;Temp;Humidity;BMP_temperature;BMP_pressure;BME280_temperature;BME280_humidity;BME280_pressure;Samples;Min_cycle;Max_cycle;Signal;HPM_P1;HPM_P2
2022/06/11 00:00:49;;;;;;;;;;;17.50;99.90;;;;;;5112717;28;19919;-67
2022/06/11 00:03:14;;;;;;;;;;;17.60;99.90;;;;;;5112589;28;19927;-67
2022/06/11 00:05:40;;;;;;;;;;;17.50;99.90;;;;;;5112448;28;19931;-67
2022/06/11 00:08:06;;;;;;;;;;;17.60;99.90;;;;;;5112695;28;19924;-68
2022/06/11 00:10:31;;;;;;;;;;;17.60;99.90;;;;;;5112507;28;20012;-67
2022/06/11 00:12:57;;;;;;;;;;;17.60;99.90;;;;;;5112591;28;19927;-67
2022/06/11 00:15:22;;;;;;;;;;;17.60;99.90;;;;;;5111301;28;20014;-68
2022/06/11 00:17:48;;;;;;;;;;;17.60;99.90;;;;;;5111998;28;19920;-67
2022/06/11 00:20:13;;;;;;;;;;;17.60;99.90;;;;;;5112077;28;19927;-68
2022/06/11 00:22:39;;;;;;;;;;;17.60;99.90;;;;;;5112449;28;19934;-67
2022/06/11 00:25:05;;;;;;;;;;;17.60;99.90;;;;;;5112434;28;19927;-68
2022/06/11 00:27:31;;;;;;;;;;;17.60;99.90;;;;;;5112412;28;20301;-68
2022/06/11 00:29:56;;;;;;;;;;;17.60;99.90;;;;;;5112040;28;20353;-68
2022/06/11 00:32:22;;;;;;;;;;;17.60;99.90;;;;;;5110838;28;19919;-68
2022/06/11 00:34:47;;;;;;;;;;;17.60;99.90;;;;;;5110966;28;19933;-67
2022/06/11 00:37:14;;;;;;;;;;;17.60;99.90;;;;;;5112300;28;19920;-67
2022/06/11 00:39:40;;;;;;;;;;;17.60;99.90;;;;;;5112035;28;19920;-68
2022/06/11 00:42:11;;;;;;;;;;;17.50;99.90;;;;;;5112146;28;19924;-67
2022/06/11 00:44:37;;;;;;;;;;;17.50;99.90;;;;;;5110540;28;19984;-68
2022/06/11 00:47:05;;;;;;;;;;;17.50;99.90;;;;;;5111982;28;20358;-67
2022/06/11 00:49:54;;;;;;;;;;;17.40;99.90;;;;;;5111692;28;19924;-68
2022/06/11 00:52:29;;;;;;;;;;;17.30;99.90;;;;;;5111924;28;19926;-67
2022/06/11 00:54:58;;;;;;;;;;;17.30;99.90;;;;;;5112270;28;19967;-67
2022/06/11 00:57:26;;;;;;;;;;;17.30;99.90;;;;;;5111972;28;19996;-67
2022/06/11 00:59:53;;;;;;;;;;;17.30;99.90;;;;;;5111377;28;19923;-67
2022/06/11 01:02:18;;;;;;;;;;;17.30;99.90;;;;;;5111790;28;19920;-68
2022/06/11 01:04:48;;;;;;;;;;;17.30;99.90;;;;;;5111700;28;19931;-67
2022/06/11 01:07:20;;;;;;;;;;;17.20;99.90;;;;;;5111800;28;19920;-68
2022/06/11 01:09:54;;;;;;;;;;;17.30;99.90;;;;;;5111531;28;19920;-68
2022/06/11 01:12:31;;;;;;;;;;;17.30;99.90;;;;;;5111484;28;19920;-67
2022/06/11 01:15:05;;;;;;;;;;;17.20;99.90;;;;;;5111847;28;19931;-67
2022/06/11 01:17:35;;;;;;;;;;;17.20;99.90;;;;;;5111760;28;19930;-68
2022/06/11 01:20:17;;;;;;;;;;;17.10;99.90;;;;;;5111356;28;19928;-67
2022/06/11 01:23:18;;;;;;;;;;;17.00;99.90;;;;;;5111409;28;19964;-67
2022/06/11 01:26:01;;;;;;;;;;;17.00;99.90;;;;;;5028473;28;19925;-67
2022/06/11 01:28:40;;;;;;;;;;;16.90;99.90;;;;;;5106988;28;19919;-67
2022/06/11 01:31:12;;;;;;;;;;;16.80;99.90;;;;;;5115759;28;19969;-67
2022/06/11 01:33:43;;;;;;;;;;;16.70;99.90;;;;;;5114269;28;19973;-67
2022/06/11 01:36:18;;;;;;;;;;;16.70;99.90;;;;;;5115618;28;19924;-67
2022/06/11 01:38:47;;;;;;;;;;;16.50;99.90;;;;;;5115391;28;19927;-67
2022/06/11 01:41:24;;;;;;;;;;;16.40;99.90;;;;;;5115595;28;19919;-67
2022/06/11 01:43:53;;;;;;;;;;;16.50;99.90;;;;;;5115307;28;20334;-68
2022/06/11 01:46:21;;;;;;;;;;;16.30;99.90;;;;;;5115268;28;20342;-67
2022/06/11 01:48:51;;;;;;;;;;;16.30;99.90;;;;;;5115152;28;19963;-67
2022/06/11 01:51:28;;;;;;;;;;;16.30;99.90;;;;;;5096850;28;20392;-68
2022/06/11 01:54:17;;;;;;;;;;;16.20;99.90;;;;;;5115113;28;19919;-67
2022/06/11 01:56:42;;;;;;;;;;;16.20;99.90;;;;;;5115976;28;19924;-68
2022/06/11 01:59:13;;;;;;;;;;;16.20;99.90;;;;;;5115082;28;19919;-68
2022/06/11 02:01:46;;;;;;;;;;;16.10;99.90;;;;;;5115321;28;19939;-68
2022/06/11 02:04:14;;;;;;;;;;;16.10;99.90;;;;;;5115108;28;19983;-68
2022/06/11 02:06:45;;;;;;;;;;;16.00;99.90;;;;;;5115274;28;20022;-68
2022/06/11 02:09:14;;;;;;;;;;;16.10;99.90;;;;;;5115151;28;19928;-67
2022/06/11 02:11:41;;;;;;;;;;;16.10;99.90;;;;;;5115079;28;19966;-67
2022/06/11 02:14:10;;;;;;;;;;;16.00;99.90;;;;;;5114867;28;19920;-67
2022/06/11 02:16:46;;;;;;;;;;;16.00;99.90;;;;;;5114793;28;19920;-67
2022/06/11 02:19:15;;;;;;;;;;;16.10;99.90;;;;;;5113084;28;20015;-67
2022/06/11 02:21:46;;;;;;;;;;;16.10;99.90;;;;;;5114917;28;19923;-68
2022/06/11 02:24:15;;;;;;;;;;;16.10;99.90;;;;;;5113280;28;19920;-67
2022/06/11 02:26:43;;;;;;;;;;;16.20;99.90;;;;;;5114750;28;19923;-67
2022/06/11 02:29:10;;;;;;;;;;;16.20;99.90;;;;;;5114266;28;20442;-67
2022/06/11 02:31:41;;;;;;;;;;;16.20;99.90;;;;;;5114518;28;19946;-67
2022/06/11 02:34:07;;;;;;;;;;;16.20;99.90;;;;;;5114572;28;19978;-67
2022/06/11 02:36:43;;;;;;;;;;;16.30;99.90;;;;;;5114506;28;19928;-67
2022/06/11 02:39:10;;;;;;;;;;;16.30;99.90;;;;;;5112105;28;20411;-67
2022/06/11 02:41:35;;;;;;;;;;;16.30;99.90;;;;;;5114330;28;19919;-67
2022/06/11 02:44:01;;;;;;;;;;;16.30;99.90;;;;;;5114131;28;19930;-67
2022/06/11 02:46:43;;;;;;;;;;;16.30;99.90;;;;;;5114397;28;20525;-67
2022/06/11 02:49:11;;;;;;;;;;;16.40;99.90;;;;;;5114001;28;19927;-67
2022/06/11 02:51:36;;;;;;;;;;;16.50;99.90;;;;;;5114236;28;19930;-67
2022/06/11 02:54:02;;;;;;;;;;;16.50;99.90;;;;;;5113869;28;19920;-67
2022/06/11 02:56:28;;;;;;;;;;;16.50;99.90;;;;;;5114005;28;20295;-67
2022/06/11 02:58:54;;;;;;;;;;;16.50;99.90;;;;;;5113712;28;19920;-67
2022/06/11 03:01:20;;;;;;;;;;;16.40;99.90;;;;;;5114127;28;19920;-67
2022/06/11 03:03:46;;;;;;;;;;;16.40;99.90;;;;;;5113714;28;19939;-67
2022/06/11 03:06:11;;;;;;;;;;;16.40;99.90;;;;;;5111831;28;20302;-67
2022/06/11 03:08:37;;;;;;;;;;;16.40;99.90;;;;;;5110368;28;19924;-67
2022/06/11 03:11:03;;;;;;;;;;;16.40;99.90;;;;;;5111080;28;19919;-67
2022/06/11 03:13:30;;;;;;;;;;;16.40;99.90;;;;;;5110888;28;19927;-67
2022/06/11 03:15:56;;;;;;;;;;;16.30;99.90;;;;;;5113877;28;20569;-67
2022/06/11 03:18:22;;;;;;;;;;;16.30;99.90;;;;;;5113076;28;19976;-67
2022/06/11 03:20:50;;;;;;;;;;;16.40;99.90;;;;;;5112906;28;19920;-67
2022/06/11 03:23:15;;;;;;;;;;;16.30;99.90;;;;;;5112310;28;20386;-67
2022/06/11 03:25:41;;;;;;;;;;;16.30;99.90;;;;;;5112131;28;19928;-68
2022/06/11 03:28:07;;;;;;;;;;;16.30;99.90;;;;;;5113622;28;19927;-67
2022/06/11 03:30:33;;;;;;;;;;;16.30;99.90;;;;;;5113304;28;19926;-68
2022/06/11 03:32:58;;;;;;;;;;;16.20;99.90;;;;;;5113724;28;19920;-68
2022/06/11 03:35:24;;;;;;;;;;;16.10;99.90;;;;;;5113525;28;19973;-68
2022/06/11 03:37:49;;;;;;;;;;;16.20;99.90;;;;;;5113343;28;20014;-68
2022/06/11 03:40:15;;;;;;;;;;;16.10;99.90;;;;;;5113161;28;19920;-68
2022/06/11 03:42:40;;;;;;;;;;;16.20;99.90;;;;;;5113482;28;20015;-68
2022/06/11 03:45:06;;;;;;;;;;;16.20;99.90;;;;;;5113443;28;19981;-67
2022/06/11 03:47:33;;;;;;;;;;;16.20;99.90;;;;;;5113223;28;19926;-67
2022/06/11 03:49:59;;;;;;;;;;;16.20;99.90;;;;;;5111446;28;20014;-67
2022/06/11 03:52:27;;;;;;;;;;;16.20;99.90;;;;;;5112032;28;20553;-67
2022/06/11 03:54:55;;;;;;;;;;;16.20;99.90;;;;;;5112889;28;19920;-67
2022/06/11 03:57:20;;;;;;;;;;;16.30;99.90;;;;;;5112983;28;19924;-67
2022/06/11 03:59:46;;;;;;;;;;;16.40;99.90;;;;;;5112472;28;19923;-67
2022/06/11 04:02:11;;;;;;;;;;;16.50;99.90;;;;;;5112670;28;20385;-68
2022/06/11 04:04:37;;;;;;;;;;;16.50;99.90;;;;;;5112444;28;19924;-67
2022/06/11 04:07:02;;;;;;;;;;;16.40;99.90;;;;;;5112649;28;20008;-67
2022/06/11 04:09:33;;;;;;;;;;;16.30;99.90;;;;;;5112230;28;20017;-67
2022/06/11 04:11:59;;;;;;;;;;;16.40;99.90;;;;;;5112685;28;19920;-67
2022/06/11 04:14:24;;;;;;;;;;;16.30;99.90;;;;;;5112631;28;19920;-67
2022/06/11 04:16:55;;;;;;;;;;;16.40;99.90;;;;;;5112504;28;19938;-67
2022/06/11 04:19:22;;;;;;;;;;;16.50;99.90;;;;;;5112141;28;19923;-67
2022/06/11 04:21:48;;;;;;;;;;;16.60;99.90;;;;;;5112384;28;19919;-68
2022/06/11 04:24:14;;;;;;;;;;;16.70;99.90;;;;;;5112457;28;20410;-68
2022/06/11 04:26:41;;;;;;;;;;;16.80;99.90;;;;;;5112544;28;20400;-67
2022/06/11 04:29:09;;;;;;;;;;;16.90;99.90;;;;;;5111884;28;19919;-67
2022/06/11 04:31:34;;;;;;;;;;;16.90;99.90;;;;;;5112259;28;20399;-68
2022/06/11 04:34:00;;;;;;;;;;;17.00;99.90;;;;;;5112109;28;19924;-67
2022/06/11 04:36:27;;;;;;;;;;;17.10;99.90;;;;;;5112086;28;20549;-67
2022/06/11 04:38:53;;;;;;;;;;;17.10;99.90;;;;;;5112062;28;19920;-67
2022/06/11 04:41:19;;;;;;;;;;;17.10;99.90;;;;;;5112244;28;20436;-68
2022/06/11 04:43:44;;;;;;;;;;;17.10;99.90;;;;;;5112055;28;19924;-68
2022/06/11 04:46:10;;;;;;;;;;;17.20;99.90;;;;;;5111808;28;19928;-68
2022/06/11 04:48:36;;;;;;;;;;;17.30;99.90;;;;;;5111722;28;19920;-67
2022/06/11 04:51:02;;;;;;;;;;;17.30;99.90;;;;;;5111907;28;19923;-67
2022/06/11 04:53:28;;;;;;;;;;;17.40;99.90;;;;;;5112062;28;19919;-67
2022/06/11 04:55:53;;;;;;;;;;;17.60;99.90;;;;;;5112128;28;20299;-68
2022/06/11 04:58:19;;;;;;;;;;;17.70;99.90;;;;;;5111776;28;19999;-68
2022/06/11 05:00:44;;;;;;;;;;;17.80;99.90;;;;;;5111651;28;19920;-67
2022/06/11 05:03:10;;;;;;;;;;;17.70;99.90;;;;;;5111478;28;19924;-67
2022/06/11 05:05:36;;;;;;;;;;;18.00;99.90;;;;;;5111603;28;20022;-67
2022/06/11 05:08:02;;;;;;;;;;;18.10;99.90;;;;;;5111645;28;19970;-67
2022/06/11 05:10:29;;;;;;;;;;;17.90;99.90;;;;;;5111424;28;19920;-67
2022/06/11 05:12:55;;;;;;;;;;;18.10;99.90;;;;;;5111826;28;20013;-67
2022/06/11 05:15:20;;;;;;;;;;;18.30;99.90;;;;;;5111709;28;19978;-67
2022/06/11 05:17:46;;;;;;;;;;;18.40;99.90;;;;;;5111687;28;19969;-68
2022/06/11 05:20:12;;;;;;;;;;;18.50;99.90;;;;;;5111348;28;20384;-68
2022/06/11 05:22:38;;;;;;;;;;;18.40;99.90;;;;;;5111435;28;19920;-68
2022/06/11 05:25:04;;;;;;;;;;;18.50;99.90;;;;;;5111631;28;19977;-68
2022/06/11 05:27:30;;;;;;;;;;;18.60;99.90;;;;;;5111614;28;20022;-68
2022/06/11 05:30:00;;;;;;;;;;;18.70;99.90;;;;;;5111263;28;20014;-67
2022/06/11 05:32:29;;;;;;;;;;;18.70;99.90;;;;;;5111478;28;19985;-67
2022/06/11 05:34:58;;;;;;;;;;;18.70;99.90;;;;;;5111368;28;19920;-68
2022/06/11 05:37:24;;;;;;;;;;;18.60;99.90;;;;;;5111622;28;19920;-68
2022/06/11 05:39:49;;;;;;;;;;;18.70;99.90;;;;;;5111306;28;19930;-67
2022/06/11 05:42:15;;;;;;;;;;;18.90;99.90;;;;;;5111339;28;20372;-68
2022/06/11 05:44:41;;;;;;;;;;;18.90;99.90;;;;;;5111231;28;20298;-68
2022/06/11 05:47:07;;;;;;;;;;;18.90;99.90;;;;;;5111502;28;19920;-68
2022/06/11 05:49:36;;;;;;;;;;;19.00;99.90;;;;;;5111097;28;19919;-67
2022/06/11 05:52:03;;;;;;;;;;;18.90;99.90;;;;;;5111307;28;19924;-67
2022/06/11 05:54:31;;;;;;;;;;;18.90;99.90;;;;;;5111214;28;19980;-68
2022/06/11 05:56:56;;;;;;;;;;;19.10;99.90;;;;;;5111434;28;19960;-67
2022/06/11 05:59:25;;;;;;;;;;;19.10;99.90;;;;;;5110905;28;19919;-68
2022/06/11 06:01:51;;;;;;;;;;;19.10;99.90;;;;;;5111224;28;20466;-68
2022/06/11 06:04:16;;;;;;;;;;;19.00;99.90;;;;;;5111302;28;20022;-68
2022/06/11 06:06:42;;;;;;;;;;;19.20;99.90;;;;;;5111321;28;20010;-68
2022/06/11 06:09:07;;;;;;;;;;;19.10;99.90;;;;;;5111021;28;19920;-67
2022/06/11 06:11:33;;;;;;;;;;;19.20;99.90;;;;;;5111280;28;19920;-67
2022/06/11 06:13:58;;;;;;;;;;;19.20;99.90;;;;;;5111380;28;19963;-68
2022/06/11 06:16:25;;;;;;;;;;;19.40;99.90;;;;;;5114851;28;19919;-68
2022/06/11 06:18:51;;;;;;;;;;;19.40;99.90;;;;;;5114578;27;20448;-68
2022/06/11 06:21:18;;;;;;;;;;;19.40;99.90;;;;;;5115017;28;19919;-68
2022/06/11 06:23:44;;;;;;;;;;;19.30;99.90;;;;;;5114803;28;19920;-68
2022/06/11 06:26:09;;;;;;;;;;;19.40;99.90;;;;;;5114729;28;20452;-68
2022/06/11 06:28:35;;;;;;;;;;;19.40;99.90;;;;;;5114383;28;20326;-68
2022/06/11 06:31:01;;;;;;;;;;;19.40;99.90;;;;;;5114562;28;20022;-68
2022/06/11 06:33:27;;;;;;;;;;;19.50;99.90;;;;;;5114670;28;20010;-68
2022/06/11 06:35:52;;;;;;;;;;;19.50;99.90;;;;;;5114655;28;20409;-67
2022/06/11 06:38:18;;;;;;;;;;;19.60;99.90;;;;;;5114498;28;20321;-67
2022/06/11 06:40:43;;;;;;;;;;;19.70;99.90;;;;;;5114359;28;19920;-67
2022/06/11 06:43:09;;;;;;;;;;;19.70;99.90;;;;;;5114326;28;19920;-68
2022/06/11 06:45:35;;;;;;;;;;;19.70;99.90;;;;;;5114113;28;19978;-68
2022/06/11 06:48:02;;;;;;;;;;;19.70;99.90;;;;;;5114143;28;19924;-68
2022/06/11 06:50:28;;;;;;;;;;;19.70;99.90;;;;;;5114091;28;19920;-68
2022/06/11 06:52:53;;;;;;;;;;;19.80;99.90;;;;;;5114249;28;19919;-68
2022/06/11 06:55:19;;;;;;;;;;;19.80;99.90;;;;;;5114251;28;20489;-67
2022/06/11 06:57:44;;;;;;;;;;;19.90;99.90;;;;;;5114042;28;19927;-68
2022/06/11 07:00:11;;;;;;;;;;;19.80;99.90;;;;;;5113513;28;19931;-68
2022/06/11 07:02:36;;;;;;;;;;;19.90;99.90;;;;;;5114114;28;19931;-68
2022/06/11 07:05:02;;;;;;;;;;;19.70;99.90;;;;;;5114036;28;19923;-68
2022/06/11 07:07:28;;;;;;;;;;;19.80;99.90;;;;;;5112897;28;19919;-68
2022/06/11 07:09:54;;;;;;;;;;;19.90;99.90;;;;;;5113666;28;20447;-67
2022/06/11 07:12:20;;;;;;;;;;;19.90;99.90;;;;;;5112359;28;20407;-68
2022/06/11 07:14:45;;;;;;;;;;;20.00;99.90;;;;;;5113674;28;19930;-68
2022/06/11 07:17:12;;;;;;;;;;;20.10;99.90;;;;;;5113845;28;19924;-68
2022/06/11 07:19:49;;;;;;;;;;;20.10;99.90;;;;;;5113560;28;19920;-68
2022/06/11 07:22:18;;;;;;;;;;;20.30;99.90;;;;;;5113785;28;19927;-67
2022/06/11 07:24:43;;;;;;;;;;;20.30;99.90;;;;;;5113408;28;20370;-67
2022/06/11 07:27:11;;;;;;;;;;;20.30;99.90;;;;;;5113332;28;20045;-67
2022/06/11 07:29:40;;;;;;;;;;;20.40;99.90;;;;;;5113268;28;19951;-68
2022/06/11 07:32:13;;;;;;;;;;;20.40;99.90;;;;;;5113441;28;19944;-67
2022/06/11 07:34:39;;;;;;;;;;;20.60;99.90;;;;;;5113445;28;19919;-67
2022/06/11 07:37:05;;;;;;;;;;;20.60;99.90;;;;;;5113502;28;20006;-67
2022/06/11 07:39:30;;;;;;;;;;;20.60;99.90;;;;;;5113022;28;19977;-67
2022/06/11 07:41:56;;;;;;;;;;;20.70;99.90;;;;;;5113148;28;19924;-67
2022/06/11 07:44:21;;;;;;;;;;;20.60;99.90;;;;;;5113282;28;20011;-67
2022/06/11 07:46:47;;;;;;;;;;;20.60;99.90;;;;;;5113086;28;19972;-66
2022/06/11 07:49:13;;;;;;;;;;;20.60;99.90;;;;;;5112838;28;19927;-67
2022/06/11 07:51:38;;;;;;;;;;;20.60;99.90;;;;;;5113163;28;19919;-67
2022/06/11 07:54:04;;;;;;;;;;;20.60;99.90;;;;;;5113025;28;19920;-67
2022/06/11 07:56:30;;;;;;;;;;;20.70;99.90;;;;;;5112813;28;19986;-67
2022/06/11 07:58:55;;;;;;;;;;;20.80;99.90;;;;;;5094122;28;20006;-67
2022/06/11 08:01:21;;;;;;;;;;;20.90;99.90;;;;;;5113013;28;20004;-67
2022/06/11 08:03:46;;;;;;;;;;;20.90;99.90;;;;;;5112812;28;19945;-67
2022/06/11 08:06:12;;;;;;;;;;;20.90;99.90;;;;;;5112696;28;20006;-67
2022/06/11 08:08:38;;;;;;;;;;;20.80;99.90;;;;;;5112465;28;20485;-67
2022/06/11 08:11:04;;;;;;;;;;;20.70;99.90;;;;;;5112602;28;19920;-67
2022/06/11 08:13:29;;;;;;;;;;;20.80;99.90;;;;;;5112693;28;19927;-67
2022/06/11 08:15:55;;;;;;;;;;;20.90;99.90;;;;;;5112679;28;19955;-67
2022/06/11 08:18:22;;;;;;;;;;;21.10;99.90;;;;;;5112519;28;19923;-67
2022/06/11 08:20:49;;;;;;;;;;;21.10;99.90;;;;;;5112209;28;19924;-67
2022/06/11 08:23:15;;;;;;;;;;;21.30;99.90;;;;;;5112512;28;19927;-67
2022/06/11 08:25:40;;;;;;;;;;;21.00;99.90;;;;;;5112239;28;19927;-68
2022/06/11 08:28:06;;;;;;;;;;;21.00;99.90;;;;;;5112396;28;20340;-68
2022/06/11 08:30:32;;;;;;;;;;;21.20;99.90;;;;;;5112215;28;19923;-67
2022/06/11 08:32:58;;;;;;;;;;;21.30;99.90;;;;;;5112398;28;20321;-67
2022/06/11 08:35:26;;;;;;;;;;;21.30;99.90;;;;;;5112249;28;19974;-67
2022/06/11 08:37:52;;;;;;;;;;;21.10;99.90;;;;;;5111550;28;19923;-67
2022/06/11 08:40:28;;;;;;;;;;;21.10;99.90;;;;;;5111750;28;19920;-67
2022/06/11 08:43:11;;;;;;;;;;;21.40;99.90;;;;;;5112141;28;20035;-67
2022/06/11 08:45:39;;;;;;;;;;;21.20;99.90;;;;;;5112112;28;19927;-67
2022/06/11 08:48:12;;;;;;;;;;;21.50;99.90;;;;;;5112117;28;19926;-67
2022/06/11 08:50:40;;;;;;;;;;;21.50;99.90;;;;;;5111627;28;19933;-67
2022/06/11 08:53:06;;;;;;;;;;;21.70;99.90;;;;;;5110871;28;19931;-67
2022/06/11 08:55:36;;;;;;;;;;;21.80;99.90;;;;;;5111976;28;19924;-67
2022/06/11 08:58:10;;;;;;;;;;;21.90;99.90;;;;;;5110546;28;19920;-67
2022/06/11 09:00:39;;;;;;;;;;;21.90;99.90;;;;;;5110315;28;19927;-67
2022/06/11 09:03:12;;;;;;;;;;;21.80;99.90;;;;;;5111706;28;19920;-67
2022/06/11 09:05:53;;;;;;;;;;;21.90;99.90;;;;;;5111785;28;19985;-67
2022/06/11 09:08:37;;;;;;;;;;;22.00;99.90;;;;;;5111839;28;19924;-66
2022/06/11 09:11:21;;;;;;;;;;;22.00;99.90;;;;;;5111755;28;19920;-66
2022/06/11 09:13:59;;;;;;;;;;;22.00;99.90;;;;;;5111566;28;19923;-67
2022/06/11 09:16:27;;;;;;;;;;;21.90;99.90;;;;;;5111865;28;20341;-66
2022/06/11 09:19:11;;;;;;;;;;;22.00;99.90;;;;;;5111554;28;19927;-67
2022/06/11 09:21:43;;;;;;;;;;;22.00;99.90;;;;;;5111601;28;19934;-67
2022/06/11 09:24:27;;;;;;;;;;;21.90;99.90;;;;;;5111475;28;19946;-66
2022/06/11 09:26:59;;;;;;;;;;;21.90;99.90;;;;;;5111728;28;20302;-67
2022/06/11 09:29:24;;;;;;;;;;;22.00;99.90;;;;;;5111389;28;19959;-67
2022/06/11 09:32:05;;;;;;;;;;;22.10;99.90;;;;;;5111672;28;19971;-67
2022/06/11 09:34:49;;;;;;;;;;;22.10;99.90;;;;;;5111396;28;19932;-67
2022/06/11 09:37:17;;;;;;;;;;;22.30;99.90;;;;;;5111745;28;19942;-67
2022/06/11 09:39:45;;;;;;;;;;;22.20;99.90;;;;;;5111208;28;19973;-67
2022/06/11 09:42:17;;;;;;;;;;;22.20;99.90;;;;;;5111562;28;19919;-66
2022/06/11 09:44:42;;;;;;;;;;;22.00;99.90;;;;;;5111408;28;19940;-67
2022/06/11 09:47:20;;;;;;;;;;;22.10;99.90;;;;;;5111426;28;20019;-67
2022/06/11 09:49:51;;;;;;;;;;;22.10;99.90;;;;;;5113120;28;19923;-67
2022/06/11 09:52:24;;;;;;;;;;;22.20;99.90;;;;;;5115481;28;19928;-67
2022/06/11 09:54:52;;;;;;;;;;;22.10;99.90;;;;;;5115123;28;20136;-67
2022/06/11 09:57:26;;;;;;;;;;;22.00;99.90;;;;;;5115232;28;19920;-67
2022/06/11 10:00:00;;;;;;;;;;;22.10;99.90;;;;;;5114917;28;19929;-67
2022/06/11 10:02:37;;;;;;;;;;;22.20;99.90;;;;;;5113793;28;19923;-67
2022/06/11 10:05:07;;;;;;;;;;;22.10;99.90;;;;;;5115046;28;19924;-67
2022/06/11 10:07:39;;;;;;;;;;;22.20;99.90;;;;;;5114997;28;19920;-67
2022/06/11 10:10:19;;;;;;;;;;;22.10;99.90;;;;;;5114883;28;19943;-67
2022/06/11 10:13:05;;;;;;;;;;;22.30;99.90;;;;;;5115152;27;19920;-67
2022/06/11 10:15:33;;;;;;;;;;;22.40;99.90;;;;;;5114242;28;19920;-67
2022/06/11 10:18:25;;;;;;;;;;;22.50;99.90;;;;;;5115026;28;19926;-67
2022/06/11 10:20:52;;;;;;;;;;;22.50;99.90;;;;;;5110675;28;19924;-67
2022/06/11 10:23:27;;;;;;;;;;;22.40;99.90;;;;;;5114790;28;19919;-67
2022/06/11 10:26:10;;;;;;;;;;;22.50;99.90;;;;;;5113403;28;19924;-66
2022/06/11 10:28:40;;;;;;;;;;;22.60;99.90;;;;;;5114448;28;20018;-67
2022/06/11 10:31:08;;;;;;;;;;;22.60;99.90;;;;;;5114885;28;19920;-66
2022/06/11 10:33:47;;;;;;;;;;;22.70;99.90;;;;;;5114520;28;19920;-67
2022/06/11 10:36:29;;;;;;;;;;;22.50;99.90;;;;;;5113519;28;19973;-67
2022/06/11 10:39:18;;;;;;;;;;;22.70;99.90;;;;;;5114103;28;20440;-67
2022/06/11 10:42:10;;;;;;;;;;;22.90;99.90;;;;;;5114621;28;19920;-67
2022/06/11 10:44:36;;;;;;;;;;;22.90;99.30;;;;;;5110269;28;19923;-67
2022/06/11 10:47:12;;;;;;;;;;;22.90;98.30;;;;;;5114382;28;19927;-67
2022/06/11 10:49:37;;;;;;;;;;;22.80;99.30;;;;;;5113955;28;19925;-67
2022/06/11 10:52:08;;;;;;;;;;;22.90;99.00;;;;;;5114105;28;20411;-66
2022/06/11 10:54:33;;;;;;;;;;;22.90;98.30;;;;;;5112537;28;19923;-67
2022/06/11 10:57:05;;;;;;;;;;;22.90;99.50;;;;;;5114237;28;19973;-67
2022/06/11 10:59:35;;;;;;;;;;;22.90;97.30;;;;;;5113632;28;19965;-67
2022/06/11 11:02:08;;;;;;;;;;;23.00;99.60;;;;;;5113915;28;19923;-67
2022/06/11 11:04:38;;;;;;;;;;;23.00;99.30;;;;;;5113852;28;19926;-67
2022/06/11 11:07:14;;;;;;;;;;;23.10;99.90;;;;;;5113917;28;19923;-67
2022/06/11 11:09:40;;;;;;;;;;;23.00;99.90;;;;;;5113609;28;20613;-67
2022/06/11 11:12:07;;;;;;;;;;;23.00;99.90;;;;;;5113968;28;19920;-67
2022/06/11 11:14:35;;;;;;;;;;;22.90;99.90;;;;;;5113819;28;19920;-67
2022/06/11 11:17:02;;;;;;;;;;;23.10;99.90;;;;;;5113708;28;19967;-67
2022/06/11 11:19:29;;;;;;;;;;;23.00;99.90;;;;;;5113342;28;19920;-67
2022/06/11 11:22:04;;;;;;;;;;;23.00;99.90;;;;;;5113564;28;20349;-67
2022/06/11 11:24:32;;;;;;;;;;;23.00;99.90;;;;;;5113501;28;19920;-67
2022/06/11 11:27:00;;;;;;;;;;;23.00;99.90;;;;;;5112578;28;19920;-67
2022/06/11 11:29:31;;;;;;;;;;;22.90;99.90;;;;;;5113388;28;20406;-67
2022/06/11 11:32:01;;;;;;;;;;;23.00;99.90;;;;;;5113573;28;20402;-67
2022/06/11 11:34:28;;;;;;;;;;;23.10;99.90;;;;;;5113563;28;20060;-67
2022/06/11 11:37:17;;;;;;;;;;;23.10;99.90;;;;;;5113567;28;19926;-67
2022/06/11 11:39:51;;;;;;;;;;;23.10;99.90;;;;;;5102434;28;20275;-67
2022/06/11 11:42:36;;;;;;;;;;;23.10;99.90;;;;;;5113272;28;20022;-67
2022/06/11 11:45:21;;;;;;;;;;;23.20;99.90;;;;;;5113348;28;19932;-67
2022/06/11 11:47:49;;;;;;;;;;;23.30;99.90;;;;;;5111948;28;20396;-67
2022/06/11 11:50:14;;;;;;;;;;;23.30;99.90;;;;;;5112930;28;19919;-67
2022/06/11 11:52:41;;;;;;;;;;;23.30;99.90;;;;;;5111895;28;19923;-67
2022/06/11 11:55:15;;;;;;;;;;;23.20;99.80;;;;;;5112486;28;19924;-67
2022/06/11 11:57:40;;;;;;;;;;;23.20;99.90;;;;;;5113048;28;20026;-67
2022/06/11 12:00:19;;;;;;;;;;;23.20;99.90;;;;;;5112462;28;20011;-67
2022/06/11 12:02:47;;;;;;;;;;;23.10;99.90;;;;;;5112842;28;19924;-67
2022/06/11 12:05:23;;;;;;;;;;;23.10;99.90;;;;;;5112852;28;20299;-66
2022/06/11 12:07:52;;;;;;;;;;;23.00;99.90;;;;;;5110871;28;21262;-67
2022/06/11 12:10:37;;;;;;;;;;;23.20;99.90;;;;;;5112517;28;19973;-67
2022/06/11 12:13:03;;;;;;;;;;;23.40;99.90;;;;;;5111220;28;20300;-67
2022/06/11 12:15:30;;;;;;;;;;;23.40;99.90;;;;;;5112464;28;19920;-67
2022/06/11 12:18:25;;;;;;;;;;;23.40;99.90;;;;;;5112730;28;19920;-67
2022/06/11 12:20:52;;;;;;;;;;;23.50;99.90;;;;;;5094419;28;19973;-67
2022/06/11 12:23:24;;;;;;;;;;;23.40;99.90;;;;;;5112376;28;19920;-67
2022/06/11 12:26:04;;;;;;;;;;;23.40;99.90;;;;;;5112128;28;20399;-67
2022/06/11 12:28:35;;;;;;;;;;;23.60;99.90;;;;;;5112262;28;19920;-67
2022/06/11 12:31:00;;;;;;;;;;;23.50;99.90;;;;;;5112335;28;19924;-67
2022/06/11 12:33:26;;;;;;;;;;;23.40;99.90;;;;;;5112290;28;19976;-67
2022/06/11 12:36:11;;;;;;;;;;;23.40;99.90;;;;;;5112135;28;19924;-67
2022/06/11 12:38:55;;;;;;;;;;;23.60;99.90;;;;;;5111797;28;20639;-67
2022/06/11 12:41:31;;;;;;;;;;;23.70;99.90;;;;;;5112213;28;20383;-67
2022/06/11 12:44:06;;;;;;;;;;;23.80;99.90;;;;;;5110613;28;19942;-67
2022/06/11 12:46:44;;;;;;;;;;;23.50;99.90;;;;;;5111903;28;19973;-67
2022/06/11 12:49:21;;;;;;;;;;;23.50;99.90;;;;;;5112276;28;19924;-67
2022/06/11 12:52:02;;;;;;;;;;;23.70;99.90;;;;;;5112348;28;19931;-67
2022/06/11 12:54:30;;;;;;;;;;;23.70;99.90;;;;;;5112007;28;20386;-67
2022/06/11 12:56:55;;;;;;;;;;;23.70;99.30;;;;;;5110503;28;20368;-67
2022/06/11 12:59:35;;;;;;;;;;;23.70;99.90;;;;;;5111508;28;19931;-67
2022/06/11 13:02:07;;;;;;;;;;;23.80;99.90;;;;;;5111814;28;19926;-66
2022/06/11 13:04:51;;;;;;;;;;;23.80;99.90;;;;;;5111698;28;20307;-67
2022/06/11 13:07:38;;;;;;;;;;;23.80;99.90;;;;;;5111648;28;20407;-67
2022/06/11 13:10:22;;;;;;;;;;;23.80;99.90;;;;;;5110398;28;19942;-67
2022/06/11 13:13:06;;;;;;;;;;;23.90;99.90;;;;;;5111644;28;19920;-67
2022/06/11 13:15:43;;;;;;;;;;;23.90;99.90;;;;;;5111605;28;19931;-67
2022/06/11 13:18:27;;;;;;;;;;;23.90;99.90;;;;;;5111917;28;19988;-67
2022/06/11 13:20:55;;;;;;;;;;;24.00;99.50;;;;;;5111811;28;19920;-67
2022/06/11 13:23:33;;;;;;;;;;;23.70;99.90;;;;;;5112580;28;19926;-67
2022/06/11 13:26:14;;;;;;;;;;;23.80;99.90;;;;;;5115827;28;19927;-67
2022/06/11 13:28:55;;;;;;;;;;;23.80;99.90;;;;;;5114233;28;19928;-67
2022/06/11 13:31:35;;;;;;;;;;;23.80;99.90;;;;;;5115881;27;19928;-67
2022/06/11 13:34:10;;;;;;;;;;;24.00;99.80;;;;;;5114340;28;19920;-67
2022/06/11 13:37:04;;;;;;;;;;;23.90;99.90;;;;;;5115801;28;19926;-67
2022/06/11 13:39:49;;;;;;;;;;;23.80;99.90;;;;;;5097198;28;19974;-67
2022/06/11 13:42:46;;;;;;;;;;;23.90;99.90;;;;;;5115425;28;20008;-67
2022/06/11 13:45:12;;;;;;;;;;;24.10;99.90;;;;;;5032254;28;20011;-67
2022/06/11 13:47:52;;;;;;;;;;;24.00;99.90;;;;;;5032271;28;20060;-67
2022/06/11 13:50:29;;;;;;;;;;;24.00;99.80;;;;;;5032056;28;19921;-66
2022/06/11 13:55:50;;;;;;;;;;;23.70;99.90;;;;;;5032316;28;20561;-67
2022/06/11 13:58:34;;;;;;;;;;;24.00;99.90;;;;;;5015880;28;19921;-66
2022/06/11 14:01:00;;;;;;;;;;;23.80;99.90;;;;;;5032281;28;19925;-67
2022/06/11 14:03:40;;;;;;;;;;;23.80;99.90;;;;;;5031968;28;19928;-67
2022/06/11 14:06:07;;;;;;;;;;;23.80;99.90;;;;;;5031931;28;19955;-67
2022/06/11 14:08:56;;;;;;;;;;;24.00;99.70;;;;;;5015155;28;19925;-67
2022/06/11 14:11:27;;;;;;;;;;;23.90;99.90;;;;;;5007895;28;19928;-68
2022/06/11 14:13:55;;;;;;;;;;;23.90;99.90;;;;;;5031671;28;19925;-67
2022/06/11 14:16:32;;;;;;;;;;;23.80;99.90;;;;;;5031820;28;20019;-67
2022/06/11 14:18:58;;;;;;;;;;;23.80;99.90;;;;;;5031419;28;19924;-68
2022/06/11 14:21:39;;;;;;;;;;;23.60;99.90;;;;;;5093478;28;19920;-67
2022/06/11 14:24:05;;;;;;;;;;;23.50;99.90;;;;;;5114592;28;19949;-67
2022/06/11 14:26:48;;;;;;;;;;;23.60;99.90;;;;;;5114832;28;19978;-67
2022/06/11 14:29:18;;;;;;;;;;;23.60;99.90;;;;;;5114509;28;20012;-68
2022/06/11 14:32:15;;;;;;;;;;;23.60;99.90;;;;;;5114724;28;19924;-68
2022/06/11 14:34:57;;;;;;;;;;;23.80;99.90;;;;;;5113368;28;19927;-67
2022/06/11 14:37:24;;;;;;;;;;;23.80;99.90;;;;;;5113509;28;19928;-67